sensor_id;sensor_type;location;lat;lon;timestamp;temperature;humidity
29007;DHT22;16104;48.642;9.008;2022-11-20T00:03:58;8.10;68.40
29007;DHT22;16104;48.642;9.008;2022-11-20T00:08:55;8.10;68.40
29007;DHT22;16104;48.642;9.008;2022-11-20T00:13:54;8.10;68.30
29007;DHT22;16104;48.642;9.008;2022-11-20T00:18:50;8.00;68.30
29007;DHT22;16104;48.642;9.008;2022-11-20T00:23:45;8.00;68.20
29007;DHT22;16104;48.642;9.008;2022-11-20T00:28:42;8.00;68.20
29007;DHT22;16104;48.642;9.008;2022-11-20T00:33:38;7.90;68.20
29007;DHT22;16104;48.642;9.008;2022-11-20T00:38:34;7.90;68.20
29007;DHT22;16104;48.642;9.008;2022-11-20T00:43:30;7.90;68.30
29007;DHT22;16104;48.642;9.008;2022-11-20T00:48:26;7.80;68.30
29007;DHT22;16104;48.642;9.008;2022-11-20T00:53:22;7.80;68.40
29007;DHT22;16104;48.642;9.008;2022-11-20T00:58:17;7.70;68.50
29007;DHT22;16104;48.642;9.008;2022-11-20T02:04:18;7.40;69.00
29007;DHT22;16104;48.642;9.008;2022-11-20T02:09:15;7.40;69.20
29007;DHT22;16104;48.642;9.008;2022-11-20T02:14:11;7.40;69.30
29007;DHT22;16104;48.642;9.008;2022-11-20T03:04:55;7.30;69.90
29007;DHT22;16104;48.642;9.008;2022-11-20T03:09:50;7.30;69.90
29007;DHT22;16104;48.642;9.008;2022-11-20T03:14:46;7.30;69.80
29007;DHT22;16104;48.642;9.008;2022-11-20T04:00:25;7.10;69.50
29007;DHT22;16104;48.642;9.008;2022-11-20T04:05:20;7.10;69.70
29007;DHT22;16104;48.642;9.008;2022-11-20T04:10:16;7.00;70.00
29007;DHT22;16104;48.642;9.008;2022-11-20T04:15:11;7.00;70.20
29007;DHT22;16104;48.642;9.008;2022-11-20T04:20:07;7.00;70.60
29007;DHT22;16104;48.642;9.008;2022-11-20T04:25:03;7.00;70.70
29007;DHT22;16104;48.642;9.008;2022-11-20T04:29:59;7.00;70.90
29007;DHT22;16104;48.642;9.008;2022-11-20T04:34:54;7.00;70.90
29007;DHT22;16104;48.642;9.008;2022-11-20T04:39:50;7.10;71.00
29007;DHT22;16104;48.642;9.008;2022-11-20T04:44:45;7.10;70.90
29007;DHT22;16104;48.642;9.008;2022-11-20T04:49:41;7.20;71.00
29007;DHT22;16104;48.642;9.008;2022-11-20T04:54:36;7.20;70.80
29007;DHT22;16104;48.642;9.008;2022-11-20T04:59:32;7.30;70.80
29007;DHT22;16104;48.642;9.008;2022-11-20T05:04:27;7.30;70.70
29007;DHT22;16104;48.642;9.008;2022-11-20T05:09:23;7.30;70.70
29007;DHT22;16104;48.642;9.008;2022-11-20T05:14:18;7.30;70.60
29007;DHT22;16104;48.642;9.008;2022-11-20T05:19:14;7.30;70.60
29007;DHT22;16104;48.642;9.008;2022-11-20T05:24:09;7.40;70.80
29007;DHT22;16104;48.642;9.008;2022-11-20T05:29:05;7.40;70.70
29007;DHT22;16104;48.642;9.008;2022-11-20T05:34:01;7.40;70.70
29007;DHT22;16104;48.642;9.008;2022-11-20T05:38:56;7.40;70.60
29007;DHT22;16104;48.642;9.008;2022-11-20T05:43:52;7.40;70.70
29007;DHT22;16104;48.642;9.008;2022-11-20T05:48:47;7.40;70.50
29007;DHT22;16104;48.642;9.008;2022-11-20T05:53:43;7.40;70.40
29007;DHT22;16104;48.642;9.008;2022-11-20T05:58:39;7.40;70.40
29007;DHT22;16104;48.642;9.008;2022-11-20T06:03:35;7.50;70.40
29007;DHT22;16104;48.642;9.008;2022-11-20T06:08:31;7.50;70.30
29007;DHT22;16104;48.642;9.008;2022-11-20T06:13:27;7.50;70.30
29007;DHT22;16104;48.642;9.008;2022-11-20T06:18:23;7.50;70.30
29007;DHT22;16104;48.642;9.008;2022-11-20T06:23:18;7.50;70.20
29007;DHT22;16104;48.642;9.008;2022-11-20T06:28:14;7.60;70.20
29007;DHT22;16104;48.642;9.008;2022-11-20T06:33:10;7.60;70.20
29007;DHT22;16104;48.642;9.008;2022-11-20T06:38:06;7.60;70.10
29007;DHT22;16104;48.642;9.008;2022-11-20T06:43:01;7.60;70.20
29007;DHT22;16104;48.642;9.008;2022-11-20T06:47:57;7.60;70.10
29007;DHT22;16104;48.642;9.008;2022-11-20T06:52:53;7.60;70.00
29007;DHT22;16104;48.642;9.008;2022-11-20T06:57:50;7.70;70.00
29007;DHT22;16104;48.642;9.008;2022-11-20T07:02:46;7.70;70.10
29007;DHT22;16104;48.642;9.008;2022-11-20T07:07:41;7.70;70.00
29007;DHT22;16104;48.642;9.008;2022-11-20T07:12:37;7.70;70.00
29007;DHT22;16104;48.642;9.008;2022-11-20T07:17:33;7.70;70.10
29007;DHT22;16104;48.642;9.008;2022-11-20T07:22:28;7.70;70.10
29007;DHT22;16104;48.642;9.008;2022-11-20T07:27:23;7.70;70.20
29007;DHT22;16104;48.642;9.008;2022-11-20T07:32:19;7.70;70.20
29007;DHT22;16104;48.642;9.008;2022-11-20T07:37:15;7.80;70.30
29007;DHT22;16104;48.642;9.008;2022-11-20T07:42:10;7.80;70.30
29007;DHT22;16104;48.642;9.008;2022-11-20T07:47:07;7.90;70.40
29007;DHT22;16104;48.642;9.008;2022-11-20T07:52:02;7.90;70.40
29007;DHT22;16104;48.642;9.008;2022-11-20T07:56:58;8.00;70.30
29007;DHT22;16104;48.642;9.008;2022-11-20T08:01:54;8.00;70.40
29007;DHT22;16104;48.642;9.008;2022-11-20T08:06:51;8.00;70.40
29007;DHT22;16104;48.642;9.008;2022-11-20T08:11:47;8.10;70.60
29007;DHT22;16104;48.642;9.008;2022-11-20T08:17:01;8.10;70.70
29007;DHT22;16104;48.642;9.008;2022-11-20T08:21:57;8.10;70.70
29007;DHT22;16104;48.642;9.008;2022-11-20T08:26:52;8.20;70.90
29007;DHT22;16104;48.642;9.008;2022-11-20T08:31:48;8.20;71.00
29007;DHT22;16104;48.642;9.008;2022-11-20T08:36:43;8.30;71.10
29007;DHT22;16104;48.642;9.008;2022-11-20T08:41:39;8.30;71.10
29007;DHT22;16104;48.642;9.008;2022-11-20T08:46:38;8.40;71.10
29007;DHT22;16104;48.642;9.008;2022-11-20T08:51:34;8.50;71.20
29007;DHT22;16104;48.642;9.008;2022-11-20T08:56:30;8.50;71.20
29007;DHT22;16104;48.642;9.008;2022-11-20T09:01:26;8.60;71.30
29007;DHT22;16104;48.642;9.008;2022-11-20T09:06:22;8.70;71.10
29007;DHT22;16104;48.642;9.008;2022-11-20T09:11:18;8.80;71.00
29007;DHT22;16104;48.642;9.008;2022-11-20T09:16:13;8.90;70.80
29007;DHT22;16104;48.642;9.008;2022-11-20T09:21:12;8.90;70.60
29007;DHT22;16104;48.642;9.008;2022-11-20T09:26:10;9.00;70.60
29007;DHT22;16104;48.642;9.008;2022-11-20T09:31:07;9.00;70.60
29007;DHT22;16104;48.642;9.008;2022-11-20T09:36:03;9.10;70.60
29007;DHT22;16104;48.642;9.008;2022-11-20T09:41:06;9.10;70.50
29007;DHT22;16104;48.642;9.008;2022-11-20T09:46:29;9.10;70.30
29007;DHT22;16104;48.642;9.008;2022-11-20T09:51:57;9.10;70.10
29007;DHT22;16104;48.642;9.008;2022-11-20T09:57:00;9.10;70.00
29007;DHT22;16104;48.642;9.008;2022-11-20T10:01:56;9.10;69.90
29007;DHT22;16104;48.642;9.008;2022-11-20T10:12:23;9.20;70.20
29007;DHT22;16104;48.642;9.008;2022-11-20T10:27:59;9.30;70.10
29007;DHT22;16104;48.642;9.008;2022-11-20T10:33:06;9.30;70.30
29007;DHT22;16104;48.642;9.008;2022-11-20T10:38:11;9.30;70.40
29007;DHT22;16104;48.642;9.008;2022-11-20T10:43:13;9.30;70.60
29007;DHT22;16104;48.642;9.008;2022-11-20T10:53:39;9.40;70.40
29007;DHT22;16104;48.642;9.008;2022-11-20T11:03:55;9.50;70.30
29007;DHT22;16104;48.642;9.008;2022-11-20T11:08:56;9.60;70.10
29007;DHT22;16104;48.642;9.008;2022-11-20T11:13:53;9.70;70.00
29007;DHT22;16104;48.642;9.008;2022-11-20T11:19:14;9.80;70.10
29007;DHT22;16104;48.642;9.008;2022-11-20T11:24:20;9.90;69.80
29007;DHT22;16104;48.642;9.008;2022-11-20T11:29:17;10.00;69.20
29007;DHT22;16104;48.642;9.008;2022-11-20T11:34:16;10.00;69.00
29007;DHT22;16104;48.642;9.008;2022-11-20T11:39:15;10.10;68.70
29007;DHT22;16104;48.642;9.008;2022-11-20T11:44:23;10.20;67.90
29007;DHT22;16104;48.642;9.008;2022-11-20T11:49:39;10.20;67.40
29007;DHT22;16104;48.642;9.008;2022-11-20T11:54:41;10.30;67.40
29007;DHT22;16104;48.642;9.008;2022-11-20T11:59:47;10.40;66.60
29007;DHT22;16104;48.642;9.008;2022-11-20T12:04:57;10.50;66.60
29007;DHT22;16104;48.642;9.008;2022-11-20T12:09:54;10.60;65.30
29007;DHT22;16104;48.642;9.008;2022-11-20T12:14:54;10.80;65.90
29007;DHT22;16104;48.642;9.008;2022-11-20T12:19:51;10.90;64.70
29007;DHT22;16104;48.642;9.008;2022-11-20T12:30:12;11.00;63.10
29007;DHT22;16104;48.642;9.008;2022-11-20T12:40:38;11.00;62.90
29007;DHT22;16104;48.642;9.008;2022-11-20T12:45:59;11.10;63.70
29007;DHT22;16104;48.642;9.008;2022-11-20T12:56:36;11.60;62.90
29007;DHT22;16104;48.642;9.008;2022-11-20T13:06:50;12.00;61.00
29007;DHT22;16104;48.642;9.008;2022-11-20T13:17:24;12.00;59.50
29007;DHT22;16104;48.642;9.008;2022-11-20T13:22:26;11.90;59.30
29007;DHT22;16104;48.642;9.008;2022-11-20T13:27:23;11.80;59.20
29007;DHT22;16104;48.642;9.008;2022-11-20T13:32:20;11.70;59.70
29007;DHT22;16104;48.642;9.008;2022-11-20T13:37:32;11.60;59.30
29007;DHT22;16104;48.642;9.008;2022-11-20T13:42:27;11.50;58.40
29007;DHT22;16104;48.642;9.008;2022-11-20T13:47:27;11.40;59.30
29007;DHT22;16104;48.642;9.008;2022-11-20T14:03:02;11.10;59.30
29007;DHT22;16104;48.642;9.008;2022-11-20T14:08:04;11.00;59.70
29007;DHT22;16104;48.642;9.008;2022-11-20T14:13:15;10.90;60.00
29007;DHT22;16104;48.642;9.008;2022-11-20T14:18:21;10.80;60.00
29007;DHT22;16104;48.642;9.008;2022-11-20T14:23:27;10.70;60.20
29007;DHT22;16104;48.642;9.008;2022-11-20T14:28:28;10.60;60.70
29007;DHT22;16104;48.642;9.008;2022-11-20T14:33:25;10.60;61.00
29007;DHT22;16104;48.642;9.008;2022-11-20T14:38:25;10.50;61.10
29007;DHT22;16104;48.642;9.008;2022-11-20T14:43:24;10.40;61.30
29007;DHT22;16104;48.642;9.008;2022-11-20T14:48:24;10.30;61.50
29007;DHT22;16104;48.642;9.008;2022-11-20T14:53:25;10.20;61.40
29007;DHT22;16104;48.642;9.008;2022-11-20T14:58:23;10.10;61.90
29007;DHT22;16104;48.642;9.008;2022-11-20T15:03:18;10.10;62.20
29007;DHT22;16104;48.642;9.008;2022-11-20T15:08:15;10.00;62.50
29007;DHT22;16104;48.642;9.008;2022-11-20T15:13:13;9.90;62.90
29007;DHT22;16104;48.642;9.008;2022-11-20T15:18:12;9.80;63.20
29007;DHT22;16104;48.642;9.008;2022-11-20T15:23:11;9.70;63.50
29007;DHT22;16104;48.642;9.008;2022-11-20T15:28:34;9.70;63.80
29007;DHT22;16104;48.642;9.008;2022-11-20T15:33:32;9.60;64.00
29007;DHT22;16104;48.642;9.008;2022-11-20T15:38:28;9.60;64.20
29007;DHT22;16104;48.642;9.008;2022-11-20T15:43:23;9.50;64.40
29007;DHT22;16104;48.642;9.008;2022-11-20T15:48:26;9.40;64.60
29007;DHT22;16104;48.642;9.008;2022-11-20T15:53:22;9.40;64.80
29007;DHT22;16104;48.642;9.008;2022-11-20T15:58:18;9.40;64.90
29007;DHT22;16104;48.642;9.008;2022-11-20T16:03:15;9.30;65.00
29007;DHT22;16104;48.642;9.008;2022-11-20T16:08:10;9.20;65.10
29007;DHT22;16104;48.642;9.008;2022-11-20T16:13:17;9.20;65.30
29007;DHT22;16104;48.642;9.008;2022-11-20T16:18:31;9.20;65.50
29007;DHT22;16104;48.642;9.008;2022-11-20T16:23:28;9.20;65.50
29007;DHT22;16104;48.642;9.008;2022-11-20T16:28:24;9.10;65.70
29007;DHT22;16104;48.642;9.008;2022-11-20T16:33:20;9.10;65.80
29007;DHT22;16104;48.642;9.008;2022-11-20T16:38:15;9.10;65.90
29007;DHT22;16104;48.642;9.008;2022-11-20T16:43:13;9.10;65.80
29007;DHT22;16104;48.642;9.008;2022-11-20T16:48:13;9.10;65.90
29007;DHT22;16104;48.642;9.008;2022-11-20T16:53:09;9.10;65.80
29007;DHT22;16104;48.642;9.008;2022-11-20T16:58:05;9.10;65.90
29007;DHT22;16104;48.642;9.008;2022-11-20T17:03:00;9.10;65.80
29007;DHT22;16104;48.642;9.008;2022-11-20T17:07:56;9.10;65.80
29007;DHT22;16104;48.642;9.008;2022-11-20T17:12:52;9.10;65.70
29007;DHT22;16104;48.642;9.008;2022-11-20T17:17:47;9.10;65.60
29007;DHT22;16104;48.642;9.008;2022-11-20T17:22:43;9.00;65.50
29007;DHT22;16104;48.642;9.008;2022-11-20T17:27:38;9.00;65.40
29007;DHT22;16104;48.642;9.008;2022-11-20T17:32:34;9.00;65.30
29007;DHT22;16104;48.642;9.008;2022-11-20T17:37:29;9.00;65.10
29007;DHT22;16104;48.642;9.008;2022-11-20T17:42:25;9.00;65.00
29007;DHT22;16104;48.642;9.008;2022-11-20T17:47:24;9.00;64.70
29007;DHT22;16104;48.642;9.008;2022-11-20T17:52:20;9.00;64.60
29007;DHT22;16104;48.642;9.008;2022-11-20T17:57:16;9.00;64.30
29007;DHT22;16104;48.642;9.008;2022-11-20T18:02:30;9.00;64.50
29007;DHT22;16104;48.642;9.008;2022-11-20T18:07:26;9.00;64.30
29007;DHT22;16104;48.642;9.008;2022-11-20T18:12:21;9.00;64.10
29007;DHT22;16104;48.642;9.008;2022-11-20T18:17:17;9.00;63.90
29007;DHT22;16104;48.642;9.008;2022-11-20T18:22:14;9.10;63.80
29007;DHT22;16104;48.642;9.008;2022-11-20T18:27:19;9.10;63.80
29007;DHT22;16104;48.642;9.008;2022-11-20T18:32:14;9.10;63.70
29007;DHT22;16104;48.642;9.008;2022-11-20T18:37:10;9.00;63.80
29007;DHT22;16104;48.642;9.008;2022-11-20T18:42:14;9.00;63.90
29007;DHT22;16104;48.642;9.008;2022-11-20T18:47:34;9.00;63.70
29007;DHT22;16104;48.642;9.008;2022-11-20T18:52:35;9.00;63.90
29007;DHT22;16104;48.642;9.008;2022-11-20T18:57:32;9.00;64.00
29007;DHT22;16104;48.642;9.008;2022-11-20T19:02:27;8.90;63.50
29007;DHT22;16104;48.642;9.008;2022-11-20T19:07:23;8.90;63.70
29007;DHT22;16104;48.642;9.008;2022-11-20T19:12:19;8.90;64.00
29007;DHT22;16104;48.642;9.008;2022-11-20T19:17:15;8.80;64.00
29007;DHT22;16104;48.642;9.008;2022-11-20T19:22:11;8.70;64.10
29007;DHT22;16104;48.642;9.008;2022-11-20T19:27:07;8.60;63.90
29007;DHT22;16104;48.642;9.008;2022-11-20T19:32:03;8.60;63.90
29007;DHT22;16104;48.642;9.008;2022-11-20T19:36:59;8.50;63.90
29007;DHT22;16104;48.642;9.008;2022-11-20T19:41:55;8.40;64.20
29007;DHT22;16104;48.642;9.008;2022-11-20T19:46:50;8.40;64.40
29007;DHT22;16104;48.642;9.008;2022-11-20T19:51:47;8.30;64.70
29007;DHT22;16104;48.642;9.008;2022-11-20T19:56:43;8.30;64.80
29007;DHT22;16104;48.642;9.008;2022-11-20T20:01:39;8.20;64.70
29007;DHT22;16104;48.642;9.008;2022-11-20T20:06:36;8.20;64.90
29007;DHT22;16104;48.642;9.008;2022-11-20T20:11:34;8.10;65.20
29007;DHT22;16104;48.642;9.008;2022-11-20T20:16:29;8.00;65.30
29007;DHT22;16104;48.642;9.008;2022-11-20T20:21:25;7.90;65.60
29007;DHT22;16104;48.642;9.008;2022-11-20T20:26:22;7.90;65.80
29007;DHT22;16104;48.642;9.008;2022-11-20T20:31:20;7.90;66.00
29007;DHT22;16104;48.642;9.008;2022-11-20T20:36:17;7.80;66.10
29007;DHT22;16104;48.642;9.008;2022-11-20T20:41:13;7.80;66.30
29007;DHT22;16104;48.642;9.008;2022-11-20T20:46:12;7.70;66.30
29007;DHT22;16104;48.642;9.008;2022-11-20T20:51:08;7.70;66.50
29007;DHT22;16104;48.642;9.008;2022-11-20T20:56:04;7.70;66.70
29007;DHT22;16104;48.642;9.008;2022-11-20T21:01:05;7.70;66.90
29007;DHT22;16104;48.642;9.008;2022-11-20T21:06:01;7.60;67.10
29007;DHT22;16104;48.642;9.008;2022-11-20T21:11:03;7.60;67.30
29007;DHT22;16104;48.642;9.008;2022-11-20T21:15:58;7.60;67.30
29007;DHT22;16104;48.642;9.008;2022-11-20T21:20:54;7.60;67.30
29007;DHT22;16104;48.642;9.008;2022-11-20T21:26:08;7.50;67.60
29007;DHT22;16104;48.642;9.008;2022-11-20T21:31:09;7.50;67.60
29007;DHT22;16104;48.642;9.008;2022-11-20T21:36:06;7.50;67.90
29007;DHT22;16104;48.642;9.008;2022-11-20T21:41:04;7.40;68.10
29007;DHT22;16104;48.642;9.008;2022-11-20T21:46:01;7.40;68.50
29007;DHT22;16104;48.642;9.008;2022-11-20T21:51:04;7.40;68.70
29007;DHT22;16104;48.642;9.008;2022-11-20T21:56:00;7.40;69.20
29007;DHT22;16104;48.642;9.008;2022-11-20T22:00:56;7.40;69.20
29007;DHT22;16104;48.642;9.008;2022-11-20T22:05:56;7.40;70.30
29007;DHT22;16104;48.642;9.008;2022-11-20T22:10:53;7.40;69.90
29007;DHT22;16104;48.642;9.008;2022-11-20T22:15:49;7.40;70.00
29007;DHT22;16104;48.642;9.008;2022-11-20T22:20:44;7.40;70.10
29007;DHT22;16104;48.642;9.008;2022-11-20T22:25:40;7.40;70.10
29007;DHT22;16104;48.642;9.008;2022-11-20T22:30:35;7.40;70.30
29007;DHT22;16104;48.642;9.008;2022-11-20T22:35:31;7.50;70.60
29007;DHT22;16104;48.642;9.008;2022-11-20T22:40:27;7.50;70.60
29007;DHT22;16104;48.642;9.008;2022-11-20T22:45:22;7.40;70.30
29007;DHT22;16104;48.642;9.008;2022-11-20T22:50:18;7.50;70.30
29007;DHT22;16104;48.642;9.008;2022-11-20T22:55:13;7.50;70.10
29007;DHT22;16104;48.642;9.008;2022-11-20T23:00:09;7.50;69.90
29007;DHT22;16104;48.642;9.008;2022-11-20T23:05:05;7.50;69.90
29007;DHT22;16104;48.642;9.008;2022-11-20T23:10:00;7.40;69.80
29007;DHT22;16104;48.642;9.008;2022-11-20T23:14:56;7.40;69.80
29007;DHT22;16104;48.642;9.008;2022-11-20T23:19:51;7.40;70.10
29007;DHT22;16104;48.642;9.008;2022-11-20T23:24:47;7.40;70.10
29007;DHT22;16104;48.642;9.008;2022-11-20T23:29:42;7.40;70.30
29007;DHT22;16104;48.642;9.008;2022-11-20T23:34:38;7.40;70.30
29007;DHT22;16104;48.642;9.008;2022-11-20T23:39:33;7.30;70.40
29007;DHT22;16104;48.642;9.008;2022-11-20T23:44:29;7.30;70.70
29007;DHT22;16104;48.642;9.008;2022-11-20T23:49:24;7.30;70.80
29007;DHT22;16104;48.642;9.008;2022-11-20T23:54:20;7.30;70.80
29007;DHT22;16104;48.642;9.008;2022-11-20T23:59:15;7.30;70.70
